Time;durP1;ratioP1;P1;durP2;ratioP2;P2;SDS_P1;SDS_P2;PMS_P1;PMS_P2;Temp;Humidity;BMP_temperature;BMP_pressure;BME280_temperature;BME280_humidity;BME280_pressure;Samples;Min_cycle;Max_cycle;Signal;HPM_P1;HPM_P2
2021/12/07 00:00:42;;;;;;;16.60;2.30;;;4.90;99.90;;;;;;5065260;28;20382;-77
2021/12/07 00:03:08;;;;;;;11.43;2.13;;;4.90;99.90;;;;;;5066061;28;20035;-77
2021/12/07 00:05:34;;;;;;;12.63;2.25;;;5.00;99.90;;;;;;5065033;28;20200;-77
2021/12/07 00:08:00;;;;;;;11.02;1.90;;;5.00;99.90;;;;;;5065138;28;20032;-78
2021/12/07 00:10:25;;;;;;;13.15;2.33;;;4.90;99.90;;;;;;5066090;28;20216;-78
2021/12/07 00:12:51;;;;;;;18.70;3.05;;;4.80;99.90;;;;;;5066188;28;20139;-79
2021/12/07 00:15:21;;;;;;;12.70;2.28;;;4.70;99.90;;;;;;5064951;28;20025;-81
2021/12/07 00:17:47;;;;;;;16.17;2.58;;;4.60;99.90;;;;;;5064837;28;20046;-78
2021/12/07 00:20:18;;;;;;;18.83;2.72;;;4.40;99.90;;;;;;5064685;28;20045;-78
2021/12/07 00:22:47;;;;;;;16.93;2.67;;;4.30;99.90;;;;;;5047789;28;20075;-79
2021/12/07 00:25:13;;;;;;;20.17;2.67;;;4.20;99.90;;;;;;5064846;28;20315;-78
2021/12/07 00:27:39;;;;;;;22.13;2.67;;;4.10;99.90;;;;;;5047904;28;20055;-78
2021/12/07 00:30:07;;;;;;;15.32;2.35;;;4.00;99.90;;;;;;5064559;28;20025;-79
2021/12/07 00:32:39;;;;;;;14.60;2.22;;;4.10;99.90;;;;;;5064533;28;20029;-79
2021/12/07 00:37:56;;;;;;;15.15;2.63;;;4.10;99.90;;;;;;5064649;28;20086;-77
2021/12/07 00:40:24;;;;;;;17.48;2.78;;;4.00;99.90;;;;;;5062665;28;20040;-78
2021/12/07 00:42:50;;;;;;;16.27;2.38;;;4.00;99.90;;;;;;5065125;28;20346;-77
2021/12/07 00:45:20;;;;;;;11.48;2.78;;;4.10;99.90;;;;;;5064553;28;20048;-78
2021/12/07 00:47:47;;;;;;;13.57;2.15;;;4.10;99.90;;;;;;5064208;28;20059;-77
2021/12/07 00:50:13;;;;;;;13.43;2.50;;;4.10;99.90;;;;;;5064093;28;20029;-78
2021/12/07 00:52:39;;;;;;;14.13;2.22;;;4.10;99.90;;;;;;5065159;28;20021;-78
2021/12/07 00:55:10;;;;;;;11.15;1.90;;;4.20;99.90;;;;;;5064969;28;20040;-79
2021/12/07 00:57:37;;;;;;;14.57;2.50;;;4.20;99.90;;;;;;5064207;28;20056;-77
2021/12/07 01:00:10;;;;;;;19.35;2.75;;;4.20;99.90;;;;;;5063459;28;20316;-77
2021/12/07 01:02:36;;;;;;;17.60;4.65;;;4.30;99.90;;;;;;5047461;28;20029;-77
2021/12/07 01:05:10;;;;;;;16.58;3.17;;;4.30;99.90;;;;;;5063805;28;20099;-79
2021/12/07 01:26:56;;;;;;;15.95;2.83;;;4.20;99.90;;;;;;5057563;28;20024;-78
2021/12/07 01:29:24;;;;;;;14.00;2.25;;;4.00;99.90;;;;;;5044441;28;20219;-79
2021/12/07 01:32:02;;;;;;;15.23;2.35;;;3.80;99.90;;;;;;5060052;28;20028;-79
2021/12/07 01:37:32;;;;;;;17.50;3.05;;;3.70;99.90;;;;;;5057454;28;20036;-77
2021/12/07 01:40:23;;;;;;;16.83;2.90;;;3.60;99.90;;;;;;5044108;28;20062;-77
2021/12/07 01:42:59;;;;;;;12.98;2.53;;;3.50;99.90;;;;;;5055840;28;20033;-78
2021/12/07 01:49:55;;;;;;;9.45;1.85;;;3.20;99.90;;;;;;5057033;28;20093;-76
2021/12/07 02:02:01;;;;;;;11.80;2.22;;;2.90;99.90;;;;;;5057068;28;20029;-76
2021/12/07 02:04:26;;;;;;;5.72;1.88;;;3.00;99.90;;;;;;5059433;28;20017;-77
2021/12/07 02:06:53;;;;;;;16.63;2.92;;;3.10;99.90;;;;;;5042909;28;20084;-76
2021/12/07 02:09:19;;;;;;;15.77;2.42;;;3.20;99.90;;;;;;5043859;28;20021;-77
2021/12/07 02:11:48;;;;;;;20.23;2.03;;;3.30;99.90;;;;;;5042131;28;20091;-78
2021/12/07 02:14:15;;;;;;;14.73;2.83;;;3.40;99.90;;;;;;5043723;28;20084;-76
2021/12/07 02:16:42;;;;;;;12.00;2.20;;;3.50;99.90;;;;;;5059277;28;20059;-77
2021/12/07 02:19:07;;;;;;;19.83;2.70;;;3.60;99.90;;;;;;5060241;28;20032;-77
2021/12/07 02:21:33;;;;;;;9.52;2.30;;;3.60;99.90;;;;;;5062319;28;20091;-76
2021/12/07 02:23:59;;;;;;;18.23;2.90;;;3.60;99.90;;;;;;5062575;28;20024;-76
2021/12/07 02:26:24;;;;;;;12.77;2.92;;;3.60;99.90;;;;;;5062510;28;20028;-78
2021/12/07 02:28:52;;;;;;;10.43;2.40;;;3.50;99.90;;;;;;5062339;28;20040;-78
2021/12/07 02:31:18;;;;;;;16.08;2.42;;;3.40;99.90;;;;;;5046175;28;20373;-76
2021/12/07 02:33:44;;;;;;;13.52;2.67;;;3.30;99.90;;;;;;5062256;28;20074;-78
2021/12/07 02:36:10;;;;;;;14.38;2.80;;;3.20;99.90;;;;;;5062330;28;20040;-78
2021/12/07 02:38:36;;;;;;;12.57;2.55;;;3.20;99.90;;;;;;5063157;28;20224;-76
2021/12/07 02:41:02;;;;;;;13.38;2.30;;;3.10;99.90;;;;;;5062417;28;20033;-78
2021/12/07 02:43:28;;;;;;;8.27;1.95;;;3.20;99.90;;;;;;5060588;28;20088;-78
2021/12/07 02:45:53;;;;;;;14.80;2.15;;;3.20;99.90;;;;;;5063389;28;20021;-76
2021/12/07 02:48:21;;;;;;;17.58;2.80;;;3.20;99.90;;;;;;5062147;28;20040;-77
2021/12/07 02:50:48;;;;;;;12.80;3.47;;;3.30;99.90;;;;;;5045218;28;20284;-77
2021/12/07 02:53:14;;;;;;;10.02;2.97;;;3.20;99.90;;;;;;5045732;28;20304;-80
2021/12/07 02:55:39;;;;;;;15.65;2.70;;;3.20;99.90;;;;;;5062159;28;20028;-79
2021/12/07 02:58:05;;;;;;;16.25;2.58;;;3.20;99.90;;;;;;5045420;28;20024;-77
2021/12/07 03:00:41;;;;;;;13.25;2.55;;;3.20;99.90;;;;;;5061974;28;20090;-77
2021/12/07 03:03:10;;;;;;;15.38;2.08;;;3.30;99.90;;;;;;5063304;28;20017;-77
2021/12/07 03:28:10;;;;;;;13.68;2.28;;;3.60;99.90;;;;;;5066096;28;20427;-78
2021/12/07 03:30:36;;;;;;;7.68;2.13;;;3.70;99.90;;;;;;5049094;28;20036;-78
2021/12/07 03:33:03;;;;;;;10.40;2.83;;;3.70;99.90;;;;;;5065614;28;20029;-78
2021/12/07 03:35:29;;;;;;;14.05;2.20;;;3.70;99.90;;;;;;5066993;28;20049;-77
2021/12/07 03:37:56;;;;;;;15.48;2.60;;;3.80;99.90;;;;;;5049077;28;20108;-77
2021/12/07 03:40:22;;;;;;;10.48;2.20;;;3.80;99.90;;;;;;5069148;28;20032;-77
2021/12/07 03:42:48;;;;;;;19.70;2.38;;;3.80;99.90;;;;;;5069090;28;20045;-78
2021/12/07 03:45:14;;;;;;;13.13;2.40;;;3.80;99.90;;;;;;5070470;28;20028;-77
2021/12/07 03:47:40;;;;;;;19.15;2.95;;;3.80;99.90;;;;;;5069676;28;20052;-78
2021/12/07 03:50:08;;;;;;;17.73;2.97;;;3.90;99.90;;;;;;5066315;28;20033;-77
2021/12/07 03:52:34;;;;;;;12.50;2.58;;;3.90;99.90;;;;;;5067340;28;20269;-79
2021/12/07 03:55:00;;;;;;;13.65;2.20;;;3.90;99.90;;;;;;5067101;28;20031;-80
2021/12/07 03:57:26;;;;;;;16.80;2.58;;;3.90;99.90;;;;;;5070794;28;20267;-77
2021/12/07 03:59:52;;;;;;;16.17;2.55;;;4.10;99.90;;;;;;5070177;28;20025;-76
2021/12/07 04:02:18;;;;;;;11.85;2.40;;;4.20;99.90;;;;;;5065503;28;20020;-77
2021/12/07 04:04:43;;;;;;;13.02;2.55;;;4.30;99.90;;;;;;5065318;28;20017;-79
2021/12/07 04:07:09;;;;;;;17.50;2.15;;;4.30;99.90;;;;;;5064939;28;20037;-79
2021/12/07 04:09:35;;;;;;;13.02;2.00;;;4.30;99.90;;;;;;5065626;28;20039;-78
2021/12/07 04:12:01;;;;;;;7.65;1.65;;;4.30;99.90;;;;;;5065237;28;20021;-77
2021/12/07 04:14:26;;;;;;;17.88;2.33;;;4.30;99.90;;;;;;5048346;28;20315;-76
2021/12/07 04:16:52;;;;;;;13.82;2.45;;;4.30;99.90;;;;;;5065433;28;20025;-77
2021/12/07 04:19:18;;;;;;;12.13;1.95;;;4.20;99.90;;;;;;5064706;28;20063;-78
2021/12/07 04:21:44;;;;;;;8.73;1.90;;;4.30;99.90;;;;;;5065700;28;20029;-77
2021/12/07 04:24:10;;;;;;;9.50;1.60;;;4.30;99.90;;;;;;5064815;28;20055;-78
2021/12/07 04:26:36;;;;;;;15.20;2.42;;;4.30;99.90;;;;;;5064691;28;20029;-80
2021/12/07 04:29:02;;;;;;;11.07;1.77;;;4.30;99.90;;;;;;5048101;28;20029;-78
2021/12/07 04:31:28;;;;;;;12.07;1.65;;;4.30;99.90;;;;;;5065773;28;20099;-78
2021/12/07 04:33:54;;;;;;;15.35;2.33;;;4.20;99.90;;;;;;5063581;28;20043;-76
2021/12/07 04:36:20;;;;;;;11.27;2.33;;;4.30;99.90;;;;;;5064669;28;20076;-77
2021/12/07 04:38:45;;;;;;;9.15;1.90;;;4.30;99.90;;;;;;5065399;28;20036;-79
2021/12/07 04:41:11;;;;;;;13.43;2.03;;;4.40;99.90;;;;;;5064526;28;20059;-77
2021/12/07 04:43:39;;;;;;;14.27;1.90;;;4.50;99.90;;;;;;5064266;28;20241;-79
2021/12/07 04:46:17;;;;;;;9.43;1.50;;;4.40;99.90;;;;;;5063995;28;20365;-76
2021/12/07 04:59:41;;;;;;;15.88;2.10;;;4.40;99.90;;;;;;5050070;28;20021;-77
2021/12/07 05:02:07;;;;;;;7.75;1.70;;;4.30;99.90;;;;;;5064992;28;20025;-76
2021/12/07 05:04:35;;;;;;;13.15;1.58;;;4.30;99.90;;;;;;5064263;28;20017;-76
2021/12/07 05:07:09;;;;;;;8.65;1.40;;;4.30;99.90;;;;;;5063787;28;20056;-78
2021/12/07 05:10:05;;;;;;;17.52;2.47;;;4.40;99.90;;;;;;5065087;28;20097;-77
2021/12/07 05:12:28;;;;;;;9.02;1.40;;;4.50;99.90;;;;;;5050233;28;20048;-77
2021/12/07 05:15:02;;;;;;;14.27;1.75;;;4.60;99.90;;;;;;5048436;28;20031;-77
2021/12/07 05:39:19;;;;;;;17.58;3.30;;;4.80;99.90;;;;;;5063466;28;20079;-80
2021/12/07 05:41:46;;;;;;;12.65;2.50;;;4.70;99.90;;;;;;5046742;28;20041;-77
2021/12/07 05:44:12;;;;;;;8.25;1.95;;;4.70;99.90;;;;;;5061871;28;20075;-77
2021/12/07 05:46:37;;;;;;;17.33;2.67;;;4.70;99.90;;;;;;5064325;28;20040;-78
2021/12/07 05:49:03;;;;;;;13.57;2.53;;;4.70;99.90;;;;;;5062709;28;20216;-76
2021/12/07 05:51:28;;;;;;;12.10;2.22;;;4.70;99.90;;;;;;5063778;28;20093;-77
2021/12/07 05:53:54;;;;;;;14.10;2.17;;;4.80;99.90;;;;;;5063219;28;20048;-77
2021/12/07 05:56:20;;;;;;;7.43;1.95;;;4.90;99.90;;;;;;5064244;28;20021;-77
2021/12/07 05:58:45;;;;;;;12.95;2.03;;;4.80;99.90;;;;;;5062890;28;20035;-77
2021/12/07 06:01:11;;;;;;;15.43;1.88;;;4.80;99.90;;;;;;5062811;28;20059;-79
2021/12/07 06:03:36;;;;;;;11.18;1.90;;;4.80;99.90;;;;;;5064123;28;20025;-77
2021/12/07 06:06:04;;;;;;;10.70;1.88;;;4.80;99.90;;;;;;5064141;28;20228;-78
2021/12/07 06:08:30;;;;;;;8.13;1.38;;;4.70;99.90;;;;;;5062677;28;20055;-78
2021/12/07 06:10:56;;;;;;;12.20;1.52;;;4.70;99.90;;;;;;5062791;28;20036;-78
2021/12/07 06:13:23;;;;;;;10.73;1.33;;;4.80;99.90;;;;;;5062807;28;20216;-79
2021/12/07 06:15:49;;;;;;;6.57;1.27;;;4.80;99.90;;;;;;5062733;28;20070;-80
2021/12/07 06:18:15;;;;;;;11.75;1.73;;;4.80;99.90;;;;;;5062442;28;20027;-79
2021/12/07 06:20:41;;;;;;;9.25;1.75;;;4.80;99.90;;;;;;5062137;28;20017;-79
2021/12/07 06:23:09;;;;;;;10.00;1.63;;;4.80;99.90;;;;;;5045598;28;20032;-78
2021/12/07 06:25:35;;;;;;;11.18;1.30;;;4.80;99.90;;;;;;5062347;28;20020;-78
2021/12/07 06:28:01;;;;;;;9.88;1.33;;;4.80;99.90;;;;;;5046077;28;20053;-79
2021/12/07 06:30:26;;;;;;;7.50;1.42;;;5.00;99.90;;;;;;5061939;28;20112;-78
2021/12/07 06:32:52;;;;;;;11.98;1.65;;;4.90;99.90;;;;;;5062222;28;20050;-77
2021/12/07 06:35:18;;;;;;;12.52;1.70;;;5.00;99.90;;;;;;5062410;28;20053;-79
2021/12/07 06:37:43;;;;;;;16.15;2.15;;;5.10;99.90;;;;;;5063583;28;20071;-77
2021/12/07 06:40:11;;;;;;;12.13;1.75;;;5.20;99.90;;;;;;5062071;28;20060;-78
2021/12/07 06:42:38;;;;;;;17.27;1.80;;;5.30;99.90;;;;;;5062503;28;20020;-77
2021/12/07 06:45:07;;;;;;;11.05;2.05;;;5.40;99.90;;;;;;5043720;28;20029;-78
2021/12/07 06:47:33;;;;;;;6.38;1.15;;;5.40;99.90;;;;;;5062248;28;20033;-80
2021/12/07 06:49:59;;;;;;;11.00;2.45;;;5.40;99.90;;;;;;5045453;28;20025;-77
2021/12/07 06:52:24;;;;;;;13.93;1.70;;;5.40;99.90;;;;;;5062915;28;20032;-79
2021/12/07 06:54:50;;;;;;;12.38;1.58;;;5.50;99.90;;;;;;5062260;28;20252;-78
2021/12/07 06:57:16;;;;;;;14.45;1.95;;;5.50;99.90;;;;;;5064103;28;20056;-78
2021/12/07 06:59:41;;;;;;;9.38;1.92;;;5.50;99.90;;;;;;5065938;28;20048;-78
2021/12/07 07:02:08;;;;;;;9.98;1.40;;;5.60;99.90;;;;;;5067235;28;20025;-77
2021/12/07 07:04:34;;;;;;;25.40;2.70;;;5.60;99.90;;;;;;5067495;28;20081;-77
2021/12/07 07:06:59;;;;;;;8.75;1.30;;;5.70;99.90;;;;;;5049655;28;20358;-77
2021/12/07 07:09:25;;;;;;;14.15;2.03;;;5.70;99.90;;;;;;5066092;28;20029;-79
2021/12/07 07:11:51;;;;;;;10.73;1.55;;;5.70;99.90;;;;;;5066331;28;20024;-78
2021/12/07 07:14:16;;;;;;;10.80;2.05;;;5.70;99.90;;;;;;5065993;28;20017;-80
2021/12/07 07:16:42;;;;;;;11.65;1.25;;;5.80;99.90;;;;;;5049227;28;20327;-80
2021/12/07 07:19:08;;;;;;;22.45;1.63;;;5.80;99.90;;;;;;5065546;28;20016;-78
2021/12/07 07:21:34;;;;;;;10.88;1.30;;;5.80;99.90;;;;;;5049015;28;20020;-79
2021/12/07 07:24:00;;;;;;;13.02;1.92;;;5.80;99.90;;;;;;5067070;28;20359;-79
2021/12/07 07:26:25;;;;;;;12.90;2.03;;;5.90;99.90;;;;;;5067002;28;20319;-78
2021/12/07 07:28:51;;;;;;;10.30;1.63;;;5.90;99.90;;;;;;5067152;28;20025;-79
2021/12/07 07:31:17;;;;;;;11.27;1.67;;;6.00;99.90;;;;;;5066418;28;20246;-79
2021/12/07 07:33:42;;;;;;;13.73;1.67;;;6.00;99.90;;;;;;5065612;28;20028;-77
2021/12/07 07:36:08;;;;;;;14.15;1.75;;;6.00;99.90;;;;;;5065478;28;20064;-79
2021/12/07 07:38:34;;;;;;;18.45;1.95;;;6.00;99.90;;;;;;5048966;28;20323;-78
2021/12/07 07:41:00;;;;;;;17.80;2.33;;;6.00;99.90;;;;;;5065462;28;20062;-78
2021/12/07 07:43:26;;;;;;;14.88;1.90;;;6.00;99.90;;;;;;5066693;28;20048;-79
2021/12/07 07:45:53;;;;;;;9.70;1.77;;;5.90;99.90;;;;;;5064294;28;20028;-79
2021/12/07 07:48:20;;;;;;;8.85;1.48;;;5.90;99.90;;;;;;5066394;28;20033;-79
2021/12/07 07:50:46;;;;;;;14.00;2.15;;;6.00;99.90;;;;;;5048071;28;20024;-81
2021/12/07 07:53:12;;;;;;;10.38;1.75;;;5.90;99.90;;;;;;5066185;28;20025;-79
2021/12/07 07:55:40;;;;;;;12.93;1.77;;;6.00;99.90;;;;;;5065389;28;20040;-78
2021/12/07 07:58:06;;;;;;;18.17;2.47;;;5.90;99.90;;;;;;5066170;28;20296;-77
2021/12/07 08:00:32;;;;;;;8.85;1.55;;;6.00;99.90;;;;;;5065716;28;20024;-76
2021/12/07 08:02:58;;;;;;;9.02;1.75;;;6.00;99.90;;;;;;5065985;28;20132;-77
2021/12/07 08:05:24;;;;;;;9.90;1.65;;;6.10;99.90;;;;;;5064765;28;20312;-78
2021/12/07 08:07:51;;;;;;;11.70;1.65;;;6.20;99.90;;;;;;5065593;28;20067;-79
2021/12/07 08:10:19;;;;;;;20.15;2.22;;;6.20;99.90;;;;;;5065353;28;20327;-75
2021/12/07 08:12:45;;;;;;;13.93;2.33;;;6.20;99.90;;;;;;5064397;28;20025;-76
2021/12/07 08:15:11;;;;;;;20.25;3.67;;;6.30;99.90;;;;;;5065974;28;20037;-78
2021/12/07 08:17:36;;;;;;;12.05;1.63;;;6.30;99.90;;;;;;5062656;28;20268;-76
2021/12/07 08:20:04;;;;;;;18.67;2.38;;;6.40;99.90;;;;;;5059843;28;20017;-81
2021/12/07 08:22:30;;;;;;;10.40;1.80;;;6.50;99.90;;;;;;5045733;28;20029;-81
2021/12/07 08:24:57;;;;;;;15.75;2.47;;;6.60;99.90;;;;;;5044630;28;20026;-77
2021/12/07 08:27:23;;;;;;;14.90;2.42;;;6.70;99.90;;;;;;5044365;28;20032;-75
2021/12/07 08:29:48;;;;;;;14.50;1.85;;;6.80;99.90;;;;;;5061001;28;20216;-80
2021/12/07 08:32:14;;;;;;;13.07;1.55;;;6.80;99.90;;;;;;5059109;28;20028;-78
2021/12/07 08:34:40;;;;;;;9.65;1.75;;;6.90;99.90;;;;;;5064128;28;20045;-76
2021/12/07 08:37:05;;;;;;;19.30;1.77;;;6.90;99.90;;;;;;5065375;28;20021;-80
2021/12/07 08:39:34;;;;;;;16.00;1.73;;;7.00;99.90;;;;;;5047578;28;20029;-78
2021/12/07 08:42:02;;;;;;;15.40;1.98;;;7.00;99.90;;;;;;5065430;28;20044;-80
2021/12/07 08:44:28;;;;;;;17.90;2.67;;;7.10;99.90;;;;;;5047516;28;20021;-77
2021/12/07 08:46:54;;;;;;;17.98;2.17;;;7.10;99.90;;;;;;5062869;28;20021;-78
2021/12/07 08:49:21;;;;;;;13.25;2.50;;;7.10;99.90;;;;;;5065391;28;20036;-76
2021/12/07 08:51:48;;;;;;;13.75;1.80;;;7.10;99.90;;;;;;5064811;28;20383;-77
2021/12/07 08:59:47;;;;;;;18.98;2.88;;;7.30;99.90;;;;;;5063793;28;20025;-78
2021/12/07 09:02:18;;;;;;;16.52;1.73;;;7.30;99.90;;;;;;5063728;28;20017;-79
2021/12/07 09:04:45;;;;;;;15.77;1.55;;;7.30;99.90;;;;;;5063184;28;20250;-78
2021/12/07 09:07:11;;;;;;;13.10;2.38;;;7.40;99.90;;;;;;5063874;28;20029;-77
2021/12/07 09:09:37;;;;;;;16.52;2.15;;;7.50;99.90;;;;;;5064799;28;20067;-78
2021/12/07 09:12:05;;;;;;;16.00;2.03;;;7.50;99.90;;;;;;5064886;28;20328;-77
2021/12/07 09:14:33;;;;;;;13.05;1.85;;;7.50;99.90;;;;;;5064221;28;20200;-76
2021/12/07 09:16:59;;;;;;;17.92;2.00;;;7.60;99.90;;;;;;5063925;28;20048;-76
2021/12/07 09:19:25;;;;;;;15.10;1.80;;;7.70;99.90;;;;;;5064308;28;20292;-76
2021/12/07 09:21:51;;;;;;;20.77;2.50;;;7.70;99.90;;;;;;5063151;28;20092;-77
2021/12/07 09:24:16;;;;;;;16.13;2.08;;;7.80;99.90;;;;;;5055920;28;20021;-79
2021/12/07 09:26:42;;;;;;;13.90;2.53;;;7.80;99.90;;;;;;5004775;28;20068;-78
2021/12/07 09:29:08;;;;;;;15.68;1.70;;;7.80;99.90;;;;;;5059557;28;20075;-83
2021/12/07 09:31:34;;;;;;;13.00;2.03;;;7.80;99.90;;;;;;5044012;28;20072;-75
2021/12/07 09:34:00;;;;;;;26.77;2.55;;;7.90;99.90;;;;;;5048736;28;20059;-77
2021/12/07 09:36:26;;;;;;;18.92;2.10;;;7.80;99.90;;;;;;5077601;28;20029;-76
2021/12/07 09:38:52;;;;;;;22.83;2.40;;;7.90;99.90;;;;;;5062236;28;20048;-80
2021/12/07 09:41:18;;;;;;;10.32;1.75;;;7.90;99.90;;;;;;5062982;28;20099;-76
2021/12/07 09:43:45;;;;;;;18.15;2.45;;;7.90;99.90;;;;;;5063819;28;20055;-79
2021/12/07 09:46:12;;;;;;;15.70;2.30;;;7.90;99.90;;;;;;5046233;28;20025;-79
2021/12/07 09:48:39;;;;;;;17.88;2.08;;;7.90;99.90;;;;;;5061684;28;20047;-75
2021/12/07 09:51:06;;;;;;;21.88;2.53;;;7.90;99.90;;;;;;5063238;28;20217;-81
2021/12/07 09:53:32;;;;;;;12.93;2.15;;;7.90;99.90;;;;;;5062657;28;20047;-77
2021/12/07 09:56:04;;;;;;;14.85;2.22;;;7.90;99.90;;;;;;5063951;28;20303;-75
2021/12/07 09:58:30;;;;;;;18.90;2.65;;;7.90;99.90;;;;;;5062517;28;20020;-80
2021/12/07 10:00:56;;;;;;;15.93;3.05;;;8.00;99.90;;;;;;5063921;28;20029;-76
2021/12/07 10:03:23;;;;;;;16.88;2.70;;;8.00;99.90;;;;;;5062750;28;20024;-78
2021/12/07 10:05:50;;;;;;;16.92;1.95;;;8.00;99.90;;;;;;5067405;28;20017;-76
2021/12/07 10:08:16;;;;;;;31.25;3.58;;;8.00;99.90;;;;;;5072669;28;20020;-81
2021/12/07 10:10:46;;;;;;;23.50;2.42;;;8.00;99.90;;;;;;5054896;28;20024;-78
2021/12/07 10:13:13;;;;;;;14.43;2.10;;;8.00;99.90;;;;;;5045785;28;20283;-81
2021/12/07 10:15:39;;;;;;;15.27;1.58;;;8.00;99.90;;;;;;5062778;28;20334;-84
2021/12/07 10:18:13;;;;;;;16.65;2.92;;;8.00;99.90;;;;;;5082692;28;20230;-78
2021/12/07 10:20:43;;;;;;;14.07;1.90;;;8.10;99.90;;;;;;5068270;28;20032;-81
2021/12/07 10:23:30;;;;;;;18.15;2.20;;;8.10;99.90;;;;;;5062686;28;20025;-74
2021/12/07 10:26:04;;;;;;;20.40;2.28;;;8.10;99.90;;;;;;5062703;28;20017;-82
2021/12/07 10:28:48;;;;;;;19.80;2.13;;;8.10;99.90;;;;;;5044320;28;20052;-77
2021/12/07 10:31:19;;;;;;;19.75;2.15;;;8.10;99.90;;;;;;5075953;28;20224;-80
2021/12/07 10:33:54;;;;;;;21.05;2.03;;;8.10;99.90;;;;;;5061510;28;20036;-80
2021/12/07 10:36:30;;;;;;;23.27;3.42;;;8.20;99.90;;;;;;5065280;28;20013;-79
2021/12/07 10:39:20;;;;;;;17.80;2.08;;;8.20;99.90;;;;;;5062178;28;20021;-79
2021/12/07 10:41:55;;;;;;;19.48;2.67;;;8.30;99.90;;;;;;5048141;28;20059;-78
2021/12/07 10:44:28;;;;;;;21.67;2.50;;;8.40;99.90;;;;;;5062743;28;20088;-79
2021/12/07 10:47:15;;;;;;;12.45;1.73;;;8.50;99.90;;;;;;5061969;28;20017;-77
2021/12/07 10:50:04;;;;;;;13.40;1.90;;;8.60;99.90;;;;;;5060184;28;20036;-77
2021/12/07 10:52:33;;;;;;;16.73;2.40;;;8.70;99.90;;;;;;5063513;28;20029;-76
2021/12/07 10:55:06;;;;;;;11.18;1.63;;;8.70;99.90;;;;;;5061968;28;20238;-77
2021/12/07 10:57:50;;;;;;;9.25;1.33;;;8.80;99.90;;;;;;5061561;28;20017;-78
2021/12/07 11:00:22;;;;;;;13.50;2.22;;;8.90;99.90;;;;;;5061852;28;20021;-77
2021/12/07 11:03:06;;;;;;;9.38;1.58;;;9.00;99.90;;;;;;5028797;28;20029;-74
2021/12/07 11:05:40;;;;;;;9.73;1.58;;;9.00;99.90;;;;;;5061411;28;20021;-74
2021/12/07 11:08:08;;;;;;;8.32;1.60;;;9.00;99.90;;;;;;5061615;28;20017;-75
2021/12/07 11:10:39;;;;;;;5.78;0.82;;;9.10;99.90;;;;;;5061618;28;20338;-74
2021/12/07 11:13:14;;;;;;;11.32;1.75;;;9.10;99.90;;;;;;5062577;28;20045;-77
2021/12/07 11:16:02;;;;;;;10.35;1.52;;;9.10;99.90;;;;;;5025687;28;20224;-75
2021/12/07 11:18:36;;;;;;;7.25;1.20;;;9.20;99.90;;;;;;5043884;28;20216;-81
2021/12/07 11:21:12;;;;;;;6.30;1.02;;;9.20;99.90;;;;;;5058260;28;20067;-74
2021/12/07 11:23:42;;;;;;;5.13;1.30;;;9.30;99.90;;;;;;5061031;28;20021;-73
2021/12/07 11:31:57;;;;;;;7.68;1.00;;;9.30;99.90;;;;;;5061553;28;20294;-75
2021/12/07 11:34:30;;;;;;;6.78;1.33;;;9.40;99.90;;;;;;5060961;28;20053;-75
2021/12/07 11:37:09;;;;;;;11.43;1.10;;;9.40;99.90;;;;;;5058298;28;20111;-75
2021/12/07 11:39:40;;;;;;;8.88;1.13;;;9.50;99.90;;;;;;5052315;28;20095;-78
2021/12/07 11:42:09;;;;;;;5.07;1.13;;;9.40;99.90;;;;;;5058438;28;20104;-77
2021/12/07 11:44:44;;;;;;;11.35;1.27;;;9.50;99.90;;;;;;5048302;28;20060;-76
2021/12/07 11:47:10;;;;;;;11.07;1.40;;;9.60;99.90;;;;;;5050736;28;20386;-76
2021/12/07 11:49:38;;;;;;;10.45;1.15;;;9.60;99.90;;;;;;5063175;28;20025;-74
2021/12/07 11:52:05;;;;;;;14.57;1.88;;;9.70;99.90;;;;;;5064538;28;20025;-76
2021/12/07 11:54:39;;;;;;;10.80;1.88;;;9.80;99.90;;;;;;5064561;28;20084;-74
2021/12/07 11:57:07;;;;;;;17.10;2.63;;;9.90;99.90;;;;;;5065674;28;20058;-74
2021/12/07 11:59:33;;;;;;;10.05;1.38;;;9.90;99.90;;;;;;5065248;28;20181;-76
2021/12/07 12:01:59;;;;;;;9.25;1.45;;;9.90;99.90;;;;;;5063843;28;20073;-75
2021/12/07 12:04:25;;;;;;;3.38;1.08;;;9.90;99.90;;;;;;5063734;28;20088;-78
2021/12/07 12:06:54;;;;;;;9.00;1.75;;;9.90;99.90;;;;;;5063939;28;20025;-76
2021/12/07 12:09:22;;;;;;;8.55;1.38;;;9.80;99.90;;;;;;5064846;28;20087;-79
2021/12/07 12:12:05;;;;;;;12.65;1.95;;;9.80;99.90;;;;;;5065392;28;20025;-75
2021/12/07 12:14:59;;;;;;;6.35;1.50;;;9.80;99.90;;;;;;5069120;28;20020;-73
2021/12/07 12:18:04;;;;;;;11.02;1.15;;;9.70;99.90;;;;;;5068028;28;20024;-76
2021/12/07 12:21:09;;;;;;;9.07;1.70;;;9.70;99.90;;;;;;5056578;28;20095;-76
2021/12/07 12:24:02;;;;;;;9.43;1.40;;;9.50;99.90;;;;;;5067822;28;20032;-75
2021/12/07 12:26:29;;;;;;;11.60;1.80;;;9.40;99.90;;;;;;5063081;28;20017;-77
2021/12/07 12:28:57;;;;;;;6.28;1.23;;;9.40;99.90;;;;;;5060050;28;20259;-73
2021/12/07 12:31:46;;;;;;;12.13;1.50;;;9.40;99.90;;;;;;5044286;28;20096;-73
2021/12/07 12:34:18;;;;;;;14.77;1.88;;;9.30;99.90;;;;;;5060278;28;20057;-75
2021/12/07 12:37:16;;;;;;;9.20;1.38;;;9.40;99.90;;;;;;5058128;28;20032;-77
2021/12/07 12:40:07;;;;;;;8.73;1.35;;;9.30;99.90;;;;;;5047923;28;20261;-73
2021/12/07 12:42:40;;;;;;;6.87;1.17;;;9.40;99.90;;;;;;5060211;28;20041;-72
2021/12/07 12:45:23;;;;;;;8.75;1.35;;;9.40;99.90;;;;;;5061560;28;20273;-73
2021/12/07 12:48:07;;;;;;;12.75;1.80;;;8.70;99.90;;;;;;5047802;28;20266;-73
2021/12/07 12:50:49;;;;;;;10.60;1.63;;;8.10;99.90;;;;;;5052976;28;20033;-72
2021/12/07 12:53:31;;;;;;;12.25;1.50;;;7.50;99.90;;;;;;5059956;28;20066;-73
2021/12/07 12:56:00;;;;;;;9.15;1.42;;;6.80;99.90;;;;;;5063087;28;20033;-70
2021/12/07 12:58:42;;;;;;;17.20;1.83;;;6.40;99.90;;;;;;5064081;28;20216;-73
2021/12/07 13:01:27;;;;;;;16.00;2.40;;;6.30;99.90;;;;;;5053672;28;20041;-74
2021/12/07 13:04:00;;;;;;;19.40;3.10;;;6.30;99.90;;;;;;5064368;28;20037;-72
2021/12/07 13:06:52;;;;;;;19.05;2.65;;;6.40;99.90;;;;;;5063977;28;20031;-71
2021/12/07 13:09:25;;;;;;;21.00;2.78;;;6.50;99.90;;;;;;5063722;28;20070;-71
2021/12/07 13:12:15;;;;;;;22.00;3.20;;;6.60;99.90;;;;;;5064207;28;20378;-74
2021/12/07 13:14:58;;;;;;;24.00;3.78;;;6.80;99.90;;;;;;5062981;28;20012;-76
2021/12/07 13:17:45;;;;;;;25.88;3.63;;;7.00;99.90;;;;;;5061873;28;20047;-71
2021/12/07 13:20:25;;;;;;;26.20;3.65;;;7.20;99.90;;;;;;5062974;28;20044;-72
2021/12/07 13:23:05;;;;;;;24.15;3.35;;;7.30;99.90;;;;;;5055624;28;20236;-74
2021/12/07 13:25:45;;;;;;;24.23;3.33;;;7.40;99.90;;;;;;5044025;28;20032;-70
2021/12/07 13:28:26;;;;;;;23.90;3.30;;;7.50;99.90;;;;;;5044402;28;20036;-75
2021/12/07 13:31:13;;;;;;;28.48;3.65;;;7.60;99.90;;;;;;5036487;28;20021;-73
2021/12/07 13:33:47;;;;;;;19.55;2.80;;;7.80;99.90;;;;;;5062997;28;20033;-76
2021/12/07 13:36:47;;;;;;;25.50;3.72;;;7.90;99.90;;;;;;5059433;28;20044;-73
2021/12/07 13:39:30;;;;;;;29.35;3.80;;;8.00;99.90;;;;;;5062539;28;20032;-75
2021/12/07 13:42:25;;;;;;;32.33;4.10;;;8.10;99.90;;;;;;5063946;28;20017;-72
2021/12/07 13:45:04;;;;;;;29.20;4.28;;;8.10;99.90;;;;;;5063126;28;20036;-74
2021/12/07 13:47:36;;;;;;;30.15;4.22;;;8.20;99.90;;;;;;5060818;28;20016;-74
2021/12/07 13:50:10;;;;;;;28.27;3.97;;;8.20;99.90;;;;;;5046051;28;20095;-74
2021/12/07 13:52:41;;;;;;;26.67;4.40;;;8.30;99.90;;;;;;5060906;28;20251;-74
2021/12/07 13:55:12;;;;;;;33.80;4.45;;;8.30;99.90;;;;;;5063592;28;20041;-74
2021/12/07 13:57:40;;;;;;;31.10;4.22;;;8.40;99.90;;;;;;5043860;28;20067;-76
2021/12/07 14:00:28;;;;;;;35.72;4.45;;;8.50;99.90;;;;;;5042706;28;20182;-73
2021/12/07 14:03:02;;;;;;;31.50;5.05;;;8.60;99.90;;;;;;5033396;28;20028;-74
2021/12/07 14:05:31;;;;;;;34.65;4.40;;;8.70;99.90;;;;;;5057045;28;20021;-74
2021/12/07 14:08:00;;;;;;;37.42;5.55;;;8.80;99.90;;;;;;5053216;28;20303;-77
2021/12/07 14:10:29;;;;;;;31.73;5.10;;;8.80;99.90;;;;;;5050179;28;20353;-74
2021/12/07 14:12:58;;;;;;;36.83;4.32;;;8.90;99.90;;;;;;5054378;28;20059;-75
2021/12/07 14:15:34;;;;;;;31.08;4.03;;;8.90;99.90;;;;;;5014011;28;20056;-79
2021/12/07 14:18:24;;;;;;;35.00;3.72;;;8.90;99.90;;;;;;5056536;28;20021;-76
2021/12/07 14:20:55;;;;;;;41.88;4.90;;;8.90;99.90;;;;;;5041810;28;20072;-77
2021/12/07 14:23:30;;;;;;;37.83;4.68;;;8.80;99.90;;;;;;5048358;28;20107;-72
2021/12/07 14:26:08;;;;;;;30.80;4.63;;;8.80;99.90;;;;;;5053554;28;20205;-73
2021/12/07 14:28:39;;;;;;;34.03;4.68;;;8.80;99.90;;;;;;5062688;28;20032;-71
2021/12/07 14:31:11;;;;;;;34.55;5.25;;;8.80;99.90;;;;;;5079393;28;20036;-73
2021/12/07 14:33:42;;;;;;;33.55;5.40;;;8.90;99.90;;;;;;5042948;28;20025;-74
2021/12/07 14:36:08;;;;;;;29.42;3.97;;;8.90;99.90;;;;;;5061447;28;20041;-74
2021/12/07 14:38:36;;;;;;;28.98;4.32;;;8.90;99.90;;;;;;5048184;28;20039;-74
2021/12/07 14:41:06;;;;;;;35.05;4.97;;;9.00;99.90;;;;;;5042292;28;20383;-75
2021/12/07 14:43:32;;;;;;;34.03;4.93;;;9.00;99.90;;;;;;5043061;28;20044;-75
2021/12/07 14:46:00;;;;;;;39.05;5.07;;;9.10;99.90;;;;;;5065855;28;20056;-73
2021/12/07 14:48:26;;;;;;;24.63;4.47;;;9.00;99.90;;;;;;5043138;28;20063;-77